Time;durP1;ratioP1;P1;durP2;ratioP2;P2;SDS_P1;SDS_P2;PMS_P1;PMS_P2;Temp;Humidity;BMP_temperature;BMP_pressure;BME280_temperature;BME280_humidity;BME280_pressure;Samples;Min_cycle;Max_cycle;Signal;HPM_P1;HPM_P2
2021/03/24 00:00:15;;;;;;;20.00;12.05;;;179.70;1792.00;;;;;;5096561;28;20024;-68
2021/03/24 00:02:41;;;;;;;18.95;11.70;;;179.60;1792.00;;;;;;5095866;28;20028;-62
2021/03/24 00:05:13;;;;;;;19.65;11.40;;;179.70;1792.00;;;;;;5096094;28;20081;-69
2021/03/24 00:07:41;;;;;;;18.40;10.77;;;179.70;1766.40;;;;;;5096077;28;20070;-68
2021/03/24 00:10:09;;;;;;;20.25;11.43;;;179.70;1792.00;;;;;;5095938;28;20103;-62
2021/03/24 00:12:35;;;;;;;19.58;12.10;;;179.70;1792.00;;;;;;5095998;28;20119;-69
2021/03/24 00:15:03;;;;;;;21.90;12.15;;;179.70;1792.00;;;;;;5095682;28;20028;-70
2021/03/24 00:17:29;;;;;;;18.15;10.77;;;179.70;1792.00;;;;;;5096288;28;20174;-66
2021/03/24 00:19:55;;;;;;;18.38;11.32;;;179.70;1792.00;;;;;;5095619;28;20095;-69
2021/03/24 00:22:21;;;;;;;19.17;11.73;;;179.60;1792.00;;;;;;5096199;28;20040;-69
2021/03/24 00:24:47;;;;;;;16.95;11.07;;;179.60;1792.00;;;;;;5095256;28;20043;-62
2021/03/24 00:27:12;;;;;;;18.42;11.45;;;179.60;1792.00;;;;;;5096027;28;20107;-69
2021/03/24 00:29:38;;;;;;;19.27;10.68;;;179.50;1817.60;;;;;;5095641;28;20099;-68
2021/03/24 00:32:05;;;;;;;16.40;10.98;;;179.50;1817.60;;;;;;5096013;28;20039;-70
2021/03/24 00:34:31;;;;;;;17.48;11.52;;;179.50;1817.60;;;;;;5095619;28;20066;-66
2021/03/24 00:36:56;;;;;;;17.05;11.38;;;179.50;1817.60;;;;;;5095333;28;20020;-70
2021/03/24 00:39:22;;;;;;;15.35;10.77;;;179.50;1817.60;;;;;;5095878;28;20032;-70
2021/03/24 00:41:48;;;;;;;17.85;10.88;;;179.50;1843.20;;;;;;5095341;28;20024;-68
2021/03/24 00:44:14;;;;;;;15.80;10.32;;;179.50;1817.60;;;;;;5077443;28;20027;-70
2021/03/24 00:46:40;;;;;;;18.95;10.63;;;179.50;1843.20;;;;;;5095329;28;20372;-65
2021/03/24 00:49:06;;;;;;;17.10;11.25;;;179.50;1843.20;;;;;;5095639;28;20028;-69
2021/03/24 00:51:32;;;;;;;15.50;9.80;;;179.50;1843.20;;;;;;5095272;28;20032;-69
2021/03/24 00:53:58;;;;;;;17.38;11.07;;;179.50;1843.20;;;;;;5095015;28;20039;-64
2021/03/24 00:56:24;;;;;;;17.83;11.75;;;179.50;1843.20;;;;;;5095328;28;20104;-66
2021/03/24 00:58:49;;;;;;;16.67;11.35;;;179.50;1843.20;;;;;;5094848;28;20559;-68
2021/03/24 01:01:15;;;;;;;18.30;11.57;;;179.50;1843.20;;;;;;5095436;28;20020;-69
2021/03/24 01:03:42;;;;;;;20.10;11.68;;;179.50;1868.80;;;;;;5094964;28;20578;-61
2021/03/24 01:06:08;;;;;;;16.45;10.70;;;179.60;1843.20;;;;;;5094022;28;20103;-61
2021/03/24 01:08:34;;;;;;;16.48;10.93;;;179.50;1843.20;;;;;;5076619;28;20028;-70
2021/03/24 01:11:00;;;;;;;20.20;11.35;;;179.50;1843.20;;;;;;5095004;28;20020;-69
2021/03/24 01:13:27;;;;;;;16.20;10.02;;;179.50;1843.20;;;;;;5094879;28;20040;-64
2021/03/24 01:15:53;;;;;;;19.88;11.63;;;179.60;1868.80;;;;;;5094668;28;20048;-69
2021/03/24 01:18:21;;;;;;;17.58;10.80;;;179.60;1868.80;;;;;;5095051;28;20046;-70
2021/03/24 01:20:47;;;;;;;19.17;11.10;;;179.50;1868.80;;;;;;5094182;28;20072;-63
2021/03/24 01:23:14;;;;;;;19.75;10.93;;;179.50;1894.40;;;;;;5094998;28;20028;-69
2021/03/24 01:25:41;;;;;;;18.52;10.60;;;179.50;1894.40;;;;;;5094183;28;20073;-69
2021/03/24 01:28:14;;;;;;;14.95;11.10;;;179.40;1894.40;;;;;;5095159;28;20158;-66
2021/03/24 01:30:39;;;;;;;16.50;11.32;;;179.40;1920.00;;;;;;5094121;28;20028;-70
2021/03/24 01:33:06;;;;;;;17.80;11.13;;;179.40;1920.00;;;;;;5094685;28;20051;-69
2021/03/24 01:35:32;;;;;;;13.68;10.60;;;179.40;1920.00;;;;;;5094225;28;20102;-68
2021/03/24 01:37:57;;;;;;;16.25;11.80;;;179.40;1920.00;;;;;;5094435;28;20154;-69
2021/03/24 01:40:25;;;;;;;16.27;10.90;;;179.40;1920.00;;;;;;5094559;28;20480;-69
2021/03/24 01:42:57;;;;;;;16.27;10.52;;;179.50;1894.40;;;;;;5093983;28;20026;-70
2021/03/24 01:45:22;;;;;;;19.50;12.27;;;179.40;1894.40;;;;;;5094480;28;20032;-69
2021/03/24 01:47:49;;;;;;;17.17;11.68;;;179.50;1894.40;;;;;;5094031;28;20085;-65
2021/03/24 01:50:22;;;;;;;17.83;11.68;;;179.50;1894.40;;;;;;5094504;28;20028;-69
2021/03/24 01:52:49;;;;;;;18.08;12.18;;;179.40;1894.40;;;;;;5093602;28;20461;-62
2021/03/24 01:55:15;;;;;;;17.98;12.60;;;179.50;1894.40;;;;;;5094118;28;20035;-69
2021/03/24 01:57:46;;;;;;;16.08;11.82;;;179.50;1894.40;;;;;;5093997;28;20082;-71
2021/03/24 02:00:27;;;;;;;18.38;12.18;;;179.50;1920.00;;;;;;5094123;28;20024;-68
2021/03/24 02:02:53;;;;;;;21.17;14.05;;;179.50;1894.40;;;;;;5093842;28;20090;-69
2021/03/24 02:05:19;;;;;;;21.88;13.75;;;179.50;1920.00;;;;;;5093581;28;20024;-69
2021/03/24 02:07:52;;;;;;;21.48;14.27;;;179.50;1894.40;;;;;;5094095;28;20031;-67
2021/03/24 02:10:33;;;;;;;20.58;12.77;;;179.50;1920.00;;;;;;5093709;28;20110;-68
2021/03/24 02:13:28;;;;;;;20.83;13.95;;;179.50;1920.00;;;;;;5075702;28;20028;-61
2021/03/24 02:16:19;;;;;;;21.23;12.77;;;179.50;1920.00;;;;;;5075084;28;20373;-69
2021/03/24 02:18:47;;;;;;;20.63;14.23;;;179.60;1945.60;;;;;;5079083;28;20361;-63
2021/03/24 02:21:25;;;;;;;20.80;14.00;;;179.50;1945.60;;;;;;5093224;28;20032;-66
2021/03/24 02:24:05;;;;;;;19.42;13.63;;;179.50;1971.20;;;;;;5089456;28;20024;-70
2021/03/24 02:27:03;;;;;;;24.60;15.55;;;179.50;1971.20;;;;;;5093017;28;20020;-62
2021/03/24 02:29:30;;;;;;;23.35;15.18;;;179.40;1971.20;;;;;;5086122;28;20040;-69
2021/03/24 02:31:58;;;;;;;22.15;14.82;;;179.50;1971.20;;;;;;5074909;28;20368;-70
2021/03/24 02:34:27;;;;;;;23.92;14.68;;;179.40;1971.20;;;;;;5093689;28;20040;-69
2021/03/24 02:36:54;;;;;;;23.75;14.57;;;179.40;1996.80;;;;;;5092674;28;20020;-69
2021/03/24 02:39:23;;;;;;;23.15;15.00;;;179.50;1971.20;;;;;;5093618;28;20059;-67
2021/03/24 02:41:51;;;;;;;22.38;15.43;;;179.50;1971.20;;;;;;5092646;28;20024;-67
2021/03/24 02:44:18;;;;;;;22.13;14.85;;;179.50;1971.20;;;;;;5093266;28;20020;-69
2021/03/24 02:46:44;;;;;;;23.52;15.50;;;179.50;1971.20;;;;;;5093129;28;20170;-69
2021/03/24 02:49:12;;;;;;;24.45;15.25;;;179.50;1971.20;;;;;;5093089;28;20020;-69
2021/03/24 02:51:39;;;;;;;25.25;15.65;;;179.50;1971.20;;;;;;5093471;28;20447;-69
2021/03/24 02:54:15;;;;;;;26.25;15.73;;;179.50;1971.20;;;;;;5093051;28;20040;-69
2021/03/24 02:56:41;;;;;;;24.30;16.63;;;179.50;1971.20;;;;;;5093279;28;20020;-69
2021/03/24 02:59:09;;;;;;;23.90;16.15;;;179.50;1971.20;;;;;;5092874;28;20150;-70
2021/03/24 03:01:55;;;;;;;24.13;14.65;;;179.50;1971.20;;;;;;5093191;28;20020;-65
2021/03/24 03:04:28;;;;;;;22.65;15.23;;;179.50;1971.20;;;;;;5078765;28;20036;-70
2021/03/24 03:06:57;;;;;;;21.95;16.00;;;179.50;1971.20;;;;;;5092910;28;20020;-69
2021/03/24 03:09:35;;;;;;;23.58;15.60;;;179.50;1971.20;;;;;;5092798;28;20016;-62
2021/03/24 03:12:28;;;;;;;23.38;16.65;;;179.50;1971.20;;;;;;5092921;28;20485;-61
2021/03/24 03:15:16;;;;;;;27.45;15.85;;;179.50;1996.80;;;;;;5092490;28;20412;-68
2021/03/24 03:18:09;;;;;;;24.35;14.95;;;179.40;1996.80;;;;;;5092794;28;20020;-70
2021/03/24 03:20:42;;;;;;;23.23;15.70;;;179.50;1996.80;;;;;;5092373;28;20400;-70
2021/03/24 03:23:16;;;;;;;26.38;16.55;;;179.40;1996.80;;;;;;5093223;28;20074;-68
2021/03/24 03:25:49;;;;;;;22.67;15.60;;;179.40;1996.80;;;;;;5092626;28;20485;-68
2021/03/24 03:28:17;;;;;;;24.27;15.95;;;179.40;1996.80;;;;;;5092781;28;20028;-69
2021/03/24 03:30:51;;;;;;;27.25;16.48;;;179.40;1996.80;;;;;;5096599;28;20429;-66
2021/03/24 03:33:23;;;;;;;23.73;16.05;;;179.40;1996.80;;;;;;5096750;28;20040;-70
2021/03/24 03:35:52;;;;;;;25.85;17.15;;;179.40;1996.80;;;;;;5078717;28;20020;-61
2021/03/24 03:38:20;;;;;;;24.77;16.67;;;179.40;1996.80;;;;;;5096352;28;20103;-68
2021/03/24 03:40:47;;;;;;;28.05;17.65;;;179.40;1996.80;;;;;;5096890;28;20027;-65
2021/03/24 03:43:17;;;;;;;26.13;16.73;;;179.40;1996.80;;;;;;5076112;28;20162;-70
2021/03/24 03:45:47;;;;;;;27.00;16.50;;;179.50;1996.80;;;;;;5076747;28;20390;-70
2021/03/24 03:48:15;;;;;;;23.73;15.82;;;179.50;1996.80;;;;;;5075987;28;20021;-68
2021/03/24 03:50:42;;;;;;;23.13;15.65;;;179.50;1996.80;;;;;;5076489;28;20020;-62
2021/03/24 03:53:38;;;;;;;23.90;15.70;;;179.50;1996.80;;;;;;5075987;28;20119;-68
2021/03/24 03:56:34;;;;;;;28.77;17.45;;;179.50;1996.80;;;;;;5076398;28;20025;-69
2021/03/24 03:59:07;;;;;;;26.63;16.10;;;179.50;1996.80;;;;;;5061250;28;20055;-62
2021/03/24 04:01:37;;;;;;;28.02;17.73;;;179.40;2022.40;;;;;;5096539;28;20397;-63
2021/03/24 04:04:09;;;;;;;23.92;16.52;;;179.40;1996.80;;;;;;5096202;28;20130;-66
2021/03/24 04:06:49;;;;;;;24.80;16.90;;;179.40;1996.80;;;;;;5096328;28;20411;-69
2021/03/24 04:09:15;;;;;;;32.03;18.73;;;179.50;1996.80;;;;;;5096056;28;20024;-69
2021/03/24 04:11:48;;;;;;;26.58;17.42;;;179.40;2022.40;;;;;;5096086;28;20016;-69
2021/03/24 04:14:22;;;;;;;23.10;15.95;;;179.40;2022.40;;;;;;5096086;28;20611;-69
2021/03/24 04:16:50;;;;;;;28.30;17.52;;;179.40;2022.40;;;;;;5095984;28;20070;-70
2021/03/24 04:19:21;;;;;;;22.80;16.33;;;179.30;2022.40;;;;;;5096053;28;20028;-62
2021/03/24 04:21:51;;;;;;;23.70;15.95;;;179.30;2022.40;;;;;;5095268;28;20039;-65
2021/03/24 04:24:31;;;;;;;21.05;15.27;;;179.30;2022.40;;;;;;5096249;28;20119;-68
2021/03/24 04:26:59;;;;;;;23.15;15.40;;;179.30;2022.40;;;;;;5095677;28;20063;-69
2021/03/24 04:29:42;;;;;;;22.52;15.63;;;179.30;2022.40;;;;;;5095831;28;20032;-69
2021/03/24 04:32:10;;;;;;;23.63;15.70;;;179.30;2022.40;;;;;;5095611;28;20032;-68
2021/03/24 04:34:37;;;;;;;21.40;15.38;;;179.30;2022.40;;;;;;5095768;28;20454;-70
2021/03/24 04:37:18;;;;;;;26.00;18.05;;;179.40;2022.40;;;;;;5095499;28;20056;-71
2021/03/24 04:39:57;;;;;;;25.20;17.05;;;179.40;2022.40;;;;;;5095378;28;20020;-67
2021/03/24 04:42:27;;;;;;;25.23;18.02;;;179.40;2022.40;;;;;;5095456;28;20024;-61
2021/03/24 04:44:57;;;;;;;25.75;17.00;;;179.40;2048.00;;;;;;5095615;28;20107;-62
2021/03/24 04:47:31;;;;;;;25.35;16.75;;;179.40;2048.00;;;;;;5095535;28;20013;-68
2021/03/24 04:50:01;;;;;;;33.72;19.42;;;179.40;2048.00;;;;;;5095067;28;20024;-67
2021/03/24 04:52:29;;;;;;;29.38;17.92;;;179.40;2048.00;;;;;;5095530;28;20538;-62
2021/03/24 04:54:57;;;;;;;34.75;20.58;;;179.40;2048.00;;;;;;5094941;28;20028;-62
2021/03/24 04:57:26;;;;;;;33.95;20.13;;;179.40;2048.00;;;;;;5095576;28;20051;-70
2021/03/24 05:00:01;;;;;;;24.60;17.33;;;179.40;2048.00;;;;;;5094639;28;20031;-69
2021/03/24 05:02:33;;;;;;;34.83;19.65;;;179.40;2048.00;;;;;;5095468;28;20043;-69
2021/03/24 05:05:05;;;;;;;26.92;17.98;;;179.40;2048.00;;;;;;5094787;28;20077;-67
2021/03/24 05:07:38;;;;;;;25.23;16.67;;;179.40;2048.00;;;;;;5095291;28;20093;-69
2021/03/24 05:10:08;;;;;;;28.33;18.30;;;179.40;2048.00;;;;;;5094751;28;20044;-68
2021/03/24 05:12:47;;;;;;;28.98;18.20;;;179.40;2048.00;;;;;;5095076;28;20031;-70
2021/03/24 05:15:22;;;;;;;29.25;19.15;;;179.40;2048.00;;;;;;5094835;28;20111;-68
2021/03/24 05:17:49;;;;;;;27.65;17.27;;;179.40;2048.00;;;;;;5076661;28;20551;-69
2021/03/24 05:20:24;;;;;;;28.88;18.23;;;179.40;2048.00;;;;;;5076449;28;20464;-69
2021/03/24 05:22:51;;;;;;;27.67;18.88;;;179.40;2048.00;;;;;;5094775;28;20035;-70
2021/03/24 05:25:33;;;;;;;27.70;17.73;;;179.40;2048.00;;;;;;5076710;28;20081;-61
2021/03/24 05:28:04;;;;;;;30.80;18.85;;;179.40;2073.60;;;;;;5094453;28;20024;-69
2021/03/24 05:30:37;;;;;;;30.30;19.92;;;179.40;2073.60;;;;;;5094669;28;20020;-69
2021/03/24 05:33:31;;;;;;;30.65;19.67;;;179.40;2073.60;;;;;;5094309;28;20105;-69
2021/03/24 05:35:57;;;;;;;27.65;19.42;;;179.40;2099.20;;;;;;5091248;28;20028;-62
2021/03/24 05:38:41;;;;;;;26.38;18.60;;;179.30;2099.20;;;;;;5076095;28;20419;-69
2021/03/24 05:41:35;;;;;;;29.08;19.52;;;179.40;2099.20;;;;;;5094692;28;20457;-65
2021/03/24 05:44:37;;;;;;;26.43;17.70;;;179.30;2124.80;;;;;;5094086;28;20106;-67
2021/03/24 05:47:24;;;;;;;27.63;19.30;;;179.30;2124.80;;;;;;5094593;28;20483;-69
2021/03/24 05:50:27;;;;;;;23.35;17.00;;;179.40;2124.80;;;;;;5093638;28;20031;-62
2021/03/24 05:53:05;;;;;;;25.73;17.85;;;179.40;2150.40;;;;;;5093844;28;20032;-70
2021/03/24 05:55:36;;;;;;;26.65;17.52;;;179.40;2124.80;;;;;;5093866;28;20016;-62
2021/03/24 05:58:27;;;;;;;23.92;15.98;;;179.40;2124.80;;;;;;5076186;28;20031;-70
2021/03/24 06:01:16;;;;;;;18.08;12.07;;;179.40;2124.80;;;;;;5093540;28;20024;-62
2021/03/24 06:03:52;;;;;;;18.60;10.68;;;179.40;2099.20;;;;;;5094143;28;20077;-70
2021/03/24 06:07:03;;;;;;;16.52;10.77;;;179.40;2099.20;;;;;;5093706;28;20103;-67
2021/03/24 06:09:50;;;;;;;14.70;10.50;;;179.50;2099.20;;;;;;5093958;28;20103;-69
2021/03/24 06:12:32;;;;;;;19.98;10.70;;;179.50;2099.20;;;;;;5093824;28;20024;-63
2021/03/24 06:15:06;;;;;;;13.70;8.52;;;179.50;2099.20;;;;;;5093858;28;20547;-62
2021/03/24 06:18:14;;;;;;;11.18;7.72;;;179.50;2073.60;;;;;;5093600;28;20062;-61
2021/03/24 06:20:59;;;;;;;15.05;10.18;;;179.50;2048.00;;;;;;5093414;28;20309;-61
2021/03/24 06:23:55;;;;;;;19.50;11.45;;;179.50;2073.60;;;;;;5093628;28;20024;-69
2021/03/24 06:26:58;;;;;;;14.82;11.00;;;179.50;2073.60;;;;;;5093354;28;20023;-70
2021/03/24 06:29:39;;;;;;;17.48;11.68;;;179.50;2073.60;;;;;;5093704;28;20020;-69
2021/03/24 06:32:29;;;;;;;21.27;13.15;;;179.60;2073.60;;;;;;5093532;28;20059;-70
2021/03/24 06:35:22;;;;;;;21.50;13.20;;;179.60;2073.60;;;;;;5093576;28;20028;-62
2021/03/24 06:38:55;;;;;;;24.10;15.98;;;179.60;2073.60;;;;;;5093191;28;20103;-62
2021/03/24 06:41:54;;;;;;;29.45;19.38;;;179.70;2099.20;;;;;;4981744;28;20030;-62
2021/03/24 06:44:38;;;;;;;30.17;20.27;;;179.70;2099.20;;;;;;5093117;28;20024;-69
2021/03/24 06:47:09;;;;;;;24.80;17.92;;;179.80;2099.20;;;;;;5093599;28;20072;-70
2021/03/24 06:49:35;;;;;;;33.13;19.90;;;179.80;2099.20;;;;;;5074782;28;20024;-70
2021/03/24 06:52:52;;;;;;;33.78;20.02;;;204.80;2124.80;;;;;;5093253;28;20032;-69
2021/03/24 06:55:39;;;;;;;32.60;18.95;;;179.80;2124.80;;;;;;5036956;28;20055;-69
2021/03/24 06:58:35;;;;;;;28.63;19.13;;;179.80;2099.20;;;;;;5093395;28;20477;-69
2021/03/24 07:01:09;;;;;;;30.77;19.33;;;179.80;2099.20;;;;;;5092531;28;20016;-61
2021/03/24 07:04:09;;;;;;;30.55;19.33;;;179.80;2099.20;;;;;;5092318;28;20043;-68
2021/03/24 07:06:53;;;;;;;29.42;18.98;;;179.80;2099.20;;;;;;5092749;28;20537;-70
2021/03/24 07:09:37;;;;;;;32.75;20.75;;;179.80;2099.20;;;;;;5075186;28;20043;-62
2021/03/24 07:12:27;;;;;;;34.25;22.08;;;179.80;2099.20;;;;;;5092250;28;20052;-68
2021/03/24 07:15:17;;;;;;;32.78;21.88;;;179.80;2099.20;;;;;;5092926;28;20036;-69
2021/03/24 07:18:07;;;;;;;31.75;21.98;;;179.80;2124.80;;;;;;5092368;28;20016;-69
2021/03/24 07:20:36;;;;;;;38.35;23.88;;;179.80;2124.80;;;;;;5092787;28;20496;-70
2021/03/24 07:23:32;;;;;;;57.63;29.50;;;179.80;2124.80;;;;;;5092599;28;20507;-69
2021/03/24 07:26:24;;;;;;;47.00;27.05;;;179.80;2124.80;;;;;;5093032;28;20077;-69
2021/03/24 07:29:21;;;;;;;80.22;43.33;;;179.80;2124.80;;;;;;5092033;28;20020;-62
2021/03/24 07:32:02;;;;;;;82.88;46.78;;;179.90;2124.80;;;;;;5092609;28;20103;-68
2021/03/24 07:34:38;;;;;;;103.80;53.90;;;180.00;2124.80;;;;;;5092548;28;20477;-72
2021/03/24 07:37:42;;;;;;;101.00;54.75;;;180.00;2150.40;;;;;;5092828;28;20016;-71
2021/03/24 07:40:55;;;;;;;165.55;83.47;;;180.10;2150.40;;;;;;5097101;28;20066;-69
2021/03/24 07:43:51;;;;;;;194.13;81.70;;;180.10;2150.40;;;;;;5069230;28;20118;-69
2021/03/24 07:46:35;;;;;;;92.10;52.38;;;180.10;2124.80;;;;;;5105798;28;20036;-66
2021/03/24 07:49:29;;;;;;;68.68;45.47;;;204.80;2099.20;;;;;;5112906;28;20019;-67
2021/03/24 07:52:41;;;;;;;39.08;27.85;;;204.80;2099.20;;;;;;5112811;28;20153;-69
2021/03/24 07:55:35;;;;;;;43.22;30.60;;;205.00;2099.20;;;;;;5112693;28;20069;-69
2021/03/24 07:58:20;;;;;;;37.47;23.60;;;205.10;2099.20;;;;;;5112890;28;20076;-69
2021/03/24 08:01:04;;;;;;;46.58;30.02;;;205.20;2048.00;;;;;;5112537;28;20023;-70
2021/03/24 08:03:34;;;;;;;40.45;26.90;;;205.30;2048.00;;;;;;5112911;28;20095;-70
2021/03/24 08:06:39;;;;;;;34.42;23.15;;;205.40;2022.40;;;;;;5112231;28;20467;-70
2021/03/24 08:09:28;;;;;;;29.67;21.52;;;205.40;2022.40;;;;;;5112860;28;20115;-70
2021/03/24 08:12:09;;;;;;;28.90;21.15;;;205.50;2022.40;;;;;;5111815;28;20028;-71
2021/03/24 08:14:45;;;;;;;39.28;24.42;;;205.50;1996.80;;;;;;5111132;28;20533;-70
2021/03/24 08:17:58;;;;;;;42.97;25.10;;;205.60;1971.20;;;;;;5114691;28;20027;-63
2021/03/24 08:20:30;;;;;;;34.65;22.67;;;205.70;1971.20;;;;;;5037714;28;20031;-70
2021/03/24 08:23:08;;;;;;;36.25;23.70;;;205.70;1971.20;;;;;;5096344;28;20529;-63
2021/03/24 08:25:49;;;;;;;35.78;24.90;;;230.40;1945.60;;;;;;5115212;28;20375;-67
2021/03/24 08:28:33;;;;;;;34.78;25.58;;;230.40;1945.60;;;;;;5115219;28;20020;-64
2021/03/24 08:31:27;;;;;;;32.22;23.48;;;230.40;1945.60;;;;;;5116299;28;20020;-68
2021/03/24 08:34:36;;;;;;;31.20;22.77;;;230.40;1945.60;;;;;;5115594;28;20038;-66
2021/03/24 08:37:11;;;;;;;28.48;21.45;;;230.50;1945.60;;;;;;5115852;28;20110;-70
2021/03/24 08:40:31;;;;;;;34.60;25.08;;;230.50;1920.00;;;;;;5115383;28;20042;-66
2021/03/24 08:43:02;;;;;;;35.97;24.42;;;230.60;1894.40;;;;;;5013265;28;20068;-69
2021/03/24 08:45:38;;;;;;;30.67;21.38;;;230.60;1894.40;;;;;;5012831;28;20034;-69
2021/03/24 08:48:13;;;;;;;27.20;20.55;;;230.50;1894.40;;;;;;5013570;28;20053;-70
2021/03/24 08:51:07;;;;;;;30.45;21.42;;;230.60;1868.80;;;;;;5011159;28;20030;-70
2021/03/24 08:53:56;;;;;;;37.47;23.47;;;230.60;1868.80;;;;;;4997882;28;20046;-71
2021/03/24 08:56:45;;;;;;;75.88;43.05;;;230.60;1868.80;;;;;;5002668;28;20031;-71
2021/03/24 08:59:16;;;;;;;44.75;27.80;;;230.60;1894.40;;;;;;5003989;28;20033;-71
2021/03/24 09:02:15;;;;;;;50.95;33.20;;;230.60;1894.40;;;;;;5002279;28;20026;-71
2021/03/24 09:05:09;;;;;;;79.10;53.67;;;230.50;1868.80;;;;;;4988917;28;20041;-71
2021/03/24 09:08:29;;;;;;;66.20;45.22;;;230.60;1894.40;;;;;;5000397;28;20030;-71
2021/03/24 09:11:13;;;;;;;69.43;41.55;;;230.50;1894.40;;;;;;4964065;28;20160;-65
2021/03/24 09:13:52;;;;;;;89.43;51.90;;;230.60;1894.40;;;;;;4958597;28;20083;-71
2021/03/24 09:16:29;;;;;;;39.25;30.15;;;230.60;1894.40;;;;;;4976022;28;20084;-64
2021/03/24 09:19:22;;;;;;;36.83;26.85;;;230.60;1894.40;;;;;;5032716;28;20033;-72
2021/03/24 09:22:06;;;;;;;41.92;28.92;;;230.60;1894.40;;;;;;5037911;28;20041;-68
2021/03/24 09:25:00;;;;;;;33.08;25.13;;;230.70;1894.40;;;;;;5039427;28;20040;-67
2021/03/24 09:27:47;;;;;;;31.92;22.48;;;230.70;1868.80;;;;;;5036359;28;20060;-71
2021/03/24 09:30:37;;;;;;;32.97;24.52;;;230.70;1868.80;;;;;;5031857;28;20032;-72
2021/03/24 09:33:24;;;;;;;29.92;20.90;;;230.70;1868.80;;;;;;5032040;28;20036;-71
2021/03/24 09:36:14;;;;;;;33.05;23.42;;;230.70;1843.20;;;;;;5032034;28;20037;-72
2021/03/24 09:38:43;;;;;;;33.97;22.83;;;230.70;1843.20;;;;;;5031166;28;20108;-69
2021/03/24 09:41:38;;;;;;;29.55;21.17;;;230.70;1843.20;;;;;;5039527;28;20021;-69
2021/03/24 09:44:13;;;;;;;38.45;22.90;;;230.70;1843.20;;;;;;5051441;28;20028;-69
2021/03/24 09:46:49;;;;;;;32.17;21.45;;;230.70;1868.80;;;;;;5094019;28;20025;-70
2021/03/24 09:49:29;;;;;;;31.00;21.10;;;230.70;1843.20;;;;;;5094134;28;20039;-70
2021/03/24 09:52:27;;;;;;;34.22;21.15;;;230.70;1843.20;;;;;;5075513;28;20077;-68
2021/03/24 09:55:08;;;;;;;30.13;19.80;;;230.70;1868.80;;;;;;5093763;28;20035;-68
2021/03/24 09:57:47;;;;;;;24.67;17.00;;;230.70;1868.80;;;;;;5101329;28;20366;-66
2021/03/24 10:00:16;;;;;;;33.00;22.70;;;230.70;1843.20;;;;;;5102420;28;20019;-69
2021/03/24 10:03:10;;;;;;;27.40;17.40;;;230.80;1843.20;;;;;;5099324;28;20112;-69
2021/03/24 10:06:01;;;;;;;25.65;16.23;;;230.80;1843.20;;;;;;5093879;28;20024;-68
2021/03/24 10:08:50;;;;;;;32.55;23.30;;;230.80;1792.00;;;;;;5075048;28;20024;-69
2021/03/24 10:11:29;;;;;;;45.58;26.42;;;230.70;1817.60;;;;;;5093884;28;20024;-68
2021/03/24 10:14:11;;;;;;;44.15;28.10;;;230.70;1843.20;;;;;;5093230;28;20040;-69
2021/03/24 10:16:48;;;;;;;88.22;51.83;;;230.70;1766.40;;;;;;5093481;28;20020;-66
2021/03/24 10:19:31;;;;;;;62.38;38.67;;;230.70;1766.40;;;;;;5101442;28;20012;-64
2021/03/24 10:22:12;;;;;;;36.75;21.17;;;230.60;1766.40;;;;;;5094504;28;20064;-66
2021/03/24 10:24:49;;;;;;;33.22;20.92;;;230.50;1792.00;;;;;;5092971;28;20055;-64
2021/03/24 10:27:25;;;;;;;35.65;23.05;;;230.50;1792.00;;;;;;5075060;28;20024;-65
2021/03/24 10:30:20;;;;;;;39.92;25.02;;;230.50;1817.60;;;;;;5092772;28;20086;-65
2021/03/24 10:33:05;;;;;;;34.03;19.60;;;230.50;1817.60;;;;;;5084639;28;20032;-70
2021/03/24 10:35:46;;;;;;;30.00;16.95;;;230.40;1766.40;;;;;;5082231;28;20057;-71
2021/03/24 10:38:30;;;;;;;33.78;22.50;;;230.40;1766.40;;;;;;5083144;28;20400;-66
2021/03/24 10:41:25;;;;;;;21.55;13.55;;;230.40;1792.00;;;;;;5102322;28;20430;-64
2021/03/24 10:44:29;;;;;;;19.17;11.05;;;205.70;1740.80;;;;;;5095191;28;20026;-69
2021/03/24 10:47:11;;;;;;;;;;;205.70;1792.00;;;;;;5061867;28;20468;-71
2021/03/24 10:50:12;;;;;;;21.98;10.63;;;205.70;1766.40;;;;;;5113482;28;19907;-68
2021/03/24 10:52:58;;;;;;;19.13;9.05;;;205.60;1740.80;;;;;;5073472;28;20027;-73
2021/03/24 10:55:25;;;;;;;17.80;10.60;;;205.60;1740.80;;;;;;5095248;28;20063;-70
2021/03/24 10:58:16;;;;;;;22.73;12.13;;;205.60;1766.40;;;;;;5113015;28;20020;-72
2021/03/24 11:00:49;;;;;;;31.42;14.38;;;205.60;1792.00;;;;;;5101659;28;20040;-71
2021/03/24 11:03:48;;;;;;;28.40;14.93;;;205.60;1792.00;;;;;;5113080;28;20058;-72
2021/03/24 11:06:59;;;;;;;38.92;19.42;;;205.60;1817.60;;;;;;5080943;28;20480;-70
2021/03/24 11:09:40;;;;;;;24.73;13.32;;;205.70;1792.00;;;;;;5061303;28;20511;-70
2021/03/24 11:12:09;;;;;;;20.45;12.38;;;205.70;1740.80;;;;;;5092479;28;20020;-70
2021/03/24 11:14:39;;;;;;;17.90;11.10;;;205.70;1766.40;;;;;;5092379;28;20122;-72
2021/03/24 11:17:09;;;;;;;13.85;6.80;;;205.70;1740.80;;;;;;5092727;28;20479;-72
2021/03/24 11:19:45;;;;;;;18.30;10.93;;;205.70;1664.00;;;;;;5092207;28;20115;-68
2021/03/24 11:22:49;;;;;;;18.10;8.98;;;205.70;1689.60;;;;;;5097866;28;20044;-67
2021/03/24 11:25:28;;;;;;;10.68;8.20;;;205.60;1689.60;;;;;;5092150;28;20042;-68
2021/03/24 11:28:17;;;;;;;14.30;9.57;;;205.50;1689.60;;;;;;5105883;28;20028;-62
2021/03/24 11:30:48;;;;;;;24.85;11.93;;;205.50;1689.60;;;;;;5091589;28;20124;-67
2021/03/24 11:33:32;;;;;;;34.65;15.68;;;205.50;1689.60;;;;;;5092742;28;20028;-67
2021/03/24 11:36:04;;;;;;;18.48;10.32;;;205.50;1689.60;;;;;;5092070;28;20028;-66
2021/03/24 11:38:48;;;;;;;32.42;15.85;;;205.50;1638.40;;;;;;5092700;28;20028;-69
2021/03/24 11:41:21;;;;;;;17.50;10.70;;;205.50;1638.40;;;;;;5090327;28;20483;-63
2021/03/24 11:44:18;;;;;;;29.13;18.67;;;205.50;1612.80;;;;;;5090864;28;20093;-63
2021/03/24 11:46:43;;;;;;;54.28;30.45;;;205.50;1612.80;;;;;;5084350;28;20190;-67
2021/03/24 11:49:37;;;;;;;36.92;25.60;;;205.40;1612.80;;;;;;5090967;28;20113;-69
2021/03/24 11:52:30;;;;;;;22.80;15.10;;;205.50;1664.00;;;;;;5102061;28;20087;-64
2021/03/24 11:55:02;;;;;;;30.08;18.33;;;205.40;1638.40;;;;;;5101279;28;20040;-62
2021/03/24 11:57:44;;;;;;;32.03;19.58;;;205.50;1664.00;;;;;;5104424;28;20115;-69
2021/03/24 12:00:40;;;;;;;22.02;13.68;;;205.50;1664.00;;;;;;5105110;28;20027;-65
2021/03/24 12:03:35;;;;;;;20.48;12.65;;;205.50;1638.40;;;;;;5105440;28;20392;-68
2021/03/24 12:06:26;;;;;;;10.32;5.95;;;205.60;1638.40;;;;;;5103911;28;20437;-63
2021/03/24 12:09:10;;;;;;;12.35;6.45;;;205.60;1536.00;;;;;;5105650;28;20466;-64
2021/03/24 12:11:41;;;;;;;11.93;6.70;;;205.50;1561.60;;;;;;5080342;28;20361;-68
2021/03/24 12:14:24;;;;;;;11.25;6.95;;;205.60;1561.60;;;;;;5095378;28;20480;-69
2021/03/24 12:17:02;;;;;;;17.63;6.63;;;205.60;1536.00;;;;;;5077937;28;20027;-68
2021/03/24 12:19:35;;;;;;;20.05;8.80;;;205.60;1536.00;;;;;;5095711;28;20032;-62
2021/03/24 12:22:21;;;;;;;17.73;8.73;;;205.50;1536.00;;;;;;5095976;28;20083;-62
2021/03/24 12:24:58;;;;;;;12.60;6.75;;;205.50;1536.00;;;;;;5095945;28;20032;-63
2021/03/24 12:27:29;;;;;;;12.32;7.40;;;205.40;1510.40;;;;;;5095989;28;20095;-62
2021/03/24 12:30:16;;;;;;;18.88;10.35;;;205.50;1536.00;;;;;;5095084;28;20082;-63
2021/03/24 12:32:42;;;;;;;25.83;13.00;;;205.50;1587.20;;;;;;5096221;28;20044;-68
2021/03/24 12:35:24;;;;;;;14.18;9.18;;;205.60;1561.60;;;;;;5095383;28;20061;-62
2021/03/24 12:38:00;;;;;;;21.35;14.07;;;205.70;1561.60;;;;;;5095847;28;20429;-63
2021/03/24 12:40:26;;;;;;;30.58;17.17;;;205.70;1587.20;;;;;;5095401;28;20024;-64
2021/03/24 12:43:05;;;;;;;14.48;7.15;;;230.40;1612.80;;;;;;5095445;28;20039;-64
2021/03/24 12:45:33;;;;;;;24.90;15.20;;;230.40;1587.20;;;;;;5095696;28;20020;-63
2021/03/24 12:48:10;;;;;;;74.35;42.90;;;230.40;1612.80;;;;;;5095181;28;20028;-63
2021/03/24 12:50:47;;;;;;;181.05;77.55;;;230.40;1638.40;;;;;;5095479;28;20024;-63
2021/03/24 12:53:28;;;;;;;102.97;44.03;;;230.40;1638.40;;;;;;5095240;28;20028;-63
2021/03/24 12:56:27;;;;;;;166.82;58.50;;;230.40;1638.40;;;;;;5095084;28;20032;-67